sensor_id;sensor_type;location;lat;lon;timestamp;P1;durP1;ratioP1;P2;durP2;ratioP2
16159;SDS011;8185;57.818;15.224;2022-09-21T00:01:05;4.33;;;1.30;;
16159;SDS011;8185;57.818;15.224;2022-09-21T00:03:33;1.20;;;0.90;;
16159;SDS011;8185;57.818;15.224;2022-09-21T00:06:02;7.30;;;1.13;;
16159;SDS011;8185;57.818;15.224;2022-09-21T00:08:30;3.03;;;0.77;;
16159;SDS011;8185;57.818;15.224;2022-09-21T00:10:57;2.53;;;0.90;;
16159;SDS011;8185;57.818;15.224;2022-09-21T00:13:25;2.57;;;0.83;;
16159;SDS011;8185;57.818;15.224;2022-09-21T00:15:53;1.53;;;0.90;;
16159;SDS011;8185;57.818;15.224;2022-09-21T00:18:20;2.40;;;0.90;;
16159;SDS011;8185;57.818;15.224;2022-09-21T00:20:48;1.83;;;0.90;;
16159;SDS011;8185;57.818;15.224;2022-09-21T00:23:18;0.97;;;0.70;;
16159;SDS011;8185;57.818;15.224;2022-09-21T00:25:45;1.27;;;0.90;;
16159;SDS011;8185;57.818;15.224;2022-09-21T00:28:12;3.40;;;1.03;;
16159;SDS011;8185;57.818;15.224;2022-09-21T00:30:40;3.63;;;0.70;;
16159;SDS011;8185;57.818;15.224;2022-09-21T00:33:07;1.70;;;0.80;;
16159;SDS011;8185;57.818;15.224;2022-09-21T00:35:34;2.50;;;0.90;;
16159;SDS011;8185;57.818;15.224;2022-09-21T00:38:01;1.27;;;0.90;;
16159;SDS011;8185;57.818;15.224;2022-09-21T00:40:30;0.80;;;0.80;;
16159;SDS011;8185;57.818;15.224;2022-09-21T00:43:11;0.87;;;0.80;;
16159;SDS011;8185;57.818;15.224;2022-09-21T00:45:39;2.30;;;1.00;;
16159;SDS011;8185;57.818;15.224;2022-09-21T00:48:08;5.43;;;0.90;;
16159;SDS011;8185;57.818;15.224;2022-09-21T00:50:36;3.23;;;1.00;;
16159;SDS011;8185;57.818;15.224;2022-09-21T00:53:09;3.50;;;1.03;;
16159;SDS011;8185;57.818;15.224;2022-09-21T00:55:39;3.03;;;0.90;;
16159;SDS011;8185;57.818;15.224;2022-09-21T00:58:09;1.13;;;0.83;;
16159;SDS011;8185;57.818;15.224;2022-09-21T01:00:40;1.97;;;1.00;;
16159;SDS011;8185;57.818;15.224;2022-09-21T01:03:08;4.13;;;1.03;;
16159;SDS011;8185;57.818;15.224;2022-09-21T01:05:37;3.63;;;1.60;;
16159;SDS011;8185;57.818;15.224;2022-09-21T01:08:05;30.17;;;2.17;;
16159;SDS011;8185;57.818;15.224;2022-09-21T01:10:40;11.77;;;1.90;;
16159;SDS011;8185;57.818;15.224;2022-09-21T01:13:19;19.93;;;2.10;;
16159;SDS011;8185;57.818;15.224;2022-09-21T01:15:52;24.73;;;1.70;;
16159;SDS011;8185;57.818;15.224;2022-09-21T01:18:26;20.23;;;1.97;;
16159;SDS011;8185;57.818;15.224;2022-09-21T01:21:07;3.80;;;1.30;;
16159;SDS011;8185;57.818;15.224;2022-09-21T01:30:10;8.17;;;1.63;;
16159;SDS011;8185;57.818;15.224;2022-09-21T01:32:40;6.83;;;1.07;;
16159;SDS011;8185;57.818;15.224;2022-09-21T01:35:11;4.93;;;1.20;;
16159;SDS011;8185;57.818;15.224;2022-09-21T01:37:43;7.23;;;1.10;;
16159;SDS011;8185;57.818;15.224;2022-09-21T01:40:15;8.53;;;1.10;;
16159;SDS011;8185;57.818;15.224;2022-09-21T01:42:46;17.93;;;1.60;;
16159;SDS011;8185;57.818;15.224;2022-09-21T01:45:18;6.33;;;1.23;;
16159;SDS011;8185;57.818;15.224;2022-09-21T01:47:50;3.97;;;0.97;;
16159;SDS011;8185;57.818;15.224;2022-09-21T01:50:20;2.70;;;0.80;;
16159;SDS011;8185;57.818;15.224;2022-09-21T01:52:50;4.03;;;1.03;;
16159;SDS011;8185;57.818;15.224;2022-09-21T01:55:23;1.30;;;0.90;;
16159;SDS011;8185;57.818;15.224;2022-09-21T01:57:55;6.30;;;1.30;;
16159;SDS011;8185;57.818;15.224;2022-09-21T02:00:29;11.70;;;1.40;;
16159;SDS011;8185;57.818;15.224;2022-09-21T02:03:01;8.57;;;1.03;;
16159;SDS011;8185;57.818;15.224;2022-09-21T02:05:31;24.90;;;2.03;;
16159;SDS011;8185;57.818;15.224;2022-09-21T02:07:59;8.47;;;1.50;;
16159;SDS011;8185;57.818;15.224;2022-09-21T02:10:29;6.07;;;1.20;;
16159;SDS011;8185;57.818;15.224;2022-09-21T02:13:01;10.93;;;1.60;;
16159;SDS011;8185;57.818;15.224;2022-09-21T02:15:34;8.07;;;1.30;;
16159;SDS011;8185;57.818;15.224;2022-09-21T02:18:11;3.73;;;1.30;;
16159;SDS011;8185;57.818;15.224;2022-09-21T02:20:47;1.00;;;0.80;;
16159;SDS011;8185;57.818;15.224;2022-09-21T02:23:21;3.20;;;1.10;;
16159;SDS011;8185;57.818;15.224;2022-09-21T02:25:53;1.93;;;1.10;;
16159;SDS011;8185;57.818;15.224;2022-09-21T02:28:27;2.40;;;0.90;;
16159;SDS011;8185;57.818;15.224;2022-09-21T02:31:05;1.10;;;0.90;;
16159;SDS011;8185;57.818;15.224;2022-09-21T02:33:40;3.43;;;0.93;;
16159;SDS011;8185;57.818;15.224;2022-09-21T02:36:17;1.40;;;1.10;;
16159;SDS011;8185;57.818;15.224;2022-09-21T02:38:55;1.50;;;1.10;;
16159;SDS011;8185;57.818;15.224;2022-09-21T02:41:33;1.33;;;1.00;;
16159;SDS011;8185;57.818;15.224;2022-09-21T02:44:05;1.33;;;1.20;;
16159;SDS011;8185;57.818;15.224;2022-09-21T02:46:40;2.20;;;0.90;;
16159;SDS011;8185;57.818;15.224;2022-09-21T02:49:14;1.83;;;1.20;;
16159;SDS011;8185;57.818;15.224;2022-09-21T02:51:45;2.27;;;1.10;;
16159;SDS011;8185;57.818;15.224;2022-09-21T02:54:16;3.00;;;0.83;;
16159;SDS011;8185;57.818;15.224;2022-09-21T02:56:47;1.13;;;1.00;;
16159;SDS011;8185;57.818;15.224;2022-09-21T02:59:16;2.77;;;1.23;;
16159;SDS011;8185;57.818;15.224;2022-09-21T03:01:46;1.60;;;1.03;;
16159;SDS011;8185;57.818;15.224;2022-09-21T03:04:15;5.17;;;1.20;;
16159;SDS011;8185;57.818;15.224;2022-09-21T03:06:43;6.33;;;1.20;;
16159;SDS011;8185;57.818;15.224;2022-09-21T03:09:11;5.80;;;1.40;;
16159;SDS011;8185;57.818;15.224;2022-09-21T03:11:38;16.37;;;1.67;;
16159;SDS011;8185;57.818;15.224;2022-09-21T03:14:07;6.70;;;1.43;;
16159;SDS011;8185;57.818;15.224;2022-09-21T03:16:35;12.50;;;1.70;;
16159;SDS011;8185;57.818;15.224;2022-09-21T03:19:04;3.37;;;0.90;;
16159;SDS011;8185;57.818;15.224;2022-09-21T03:21:31;4.87;;;1.27;;
16159;SDS011;8185;57.818;15.224;2022-09-21T03:23:58;6.93;;;1.50;;
16159;SDS011;8185;57.818;15.224;2022-09-21T03:26:26;17.80;;;1.80;;
16159;SDS011;8185;57.818;15.224;2022-09-21T03:28:53;29.03;;;2.83;;
16159;SDS011;8185;57.818;15.224;2022-09-21T03:31:21;3.83;;;1.13;;
16159;SDS011;8185;57.818;15.224;2022-09-21T03:33:48;5.80;;;1.90;;
16159;SDS011;8185;57.818;15.224;2022-09-21T03:36:17;14.67;;;1.33;;
16159;SDS011;8185;57.818;15.224;2022-09-21T03:38:45;17.90;;;1.77;;
16159;SDS011;8185;57.818;15.224;2022-09-21T03:41:12;15.33;;;1.60;;
16159;SDS011;8185;57.818;15.224;2022-09-21T03:43:39;3.10;;;1.20;;
16159;SDS011;8185;57.818;15.224;2022-09-21T03:46:07;5.77;;;1.50;;
16159;SDS011;8185;57.818;15.224;2022-09-21T03:48:34;15.67;;;1.83;;
16159;SDS011;8185;57.818;15.224;2022-09-21T03:51:01;4.50;;;1.30;;
16159;SDS011;8185;57.818;15.224;2022-09-21T03:53:30;9.80;;;1.63;;
16159;SDS011;8185;57.818;15.224;2022-09-21T03:55:57;11.90;;;1.53;;
16159;SDS011;8185;57.818;15.224;2022-09-21T03:58:24;25.93;;;2.40;;
16159;SDS011;8185;57.818;15.224;2022-09-21T04:00:52;28.77;;;3.13;;
16159;SDS011;8185;57.818;15.224;2022-09-21T04:03:19;28.30;;;2.83;;
16159;SDS011;8185;57.818;15.224;2022-09-21T04:05:48;13.63;;;1.77;;
16159;SDS011;8185;57.818;15.224;2022-09-21T04:08:15;40.53;;;3.13;;
16159;SDS011;8185;57.818;15.224;2022-09-21T04:10:44;10.43;;;1.80;;
16159;SDS011;8185;57.818;15.224;2022-09-21T04:13:11;37.37;;;3.30;;
16159;SDS011;8185;57.818;15.224;2022-09-21T04:15:38;29.93;;;2.20;;
16159;SDS011;8185;57.818;15.224;2022-09-21T04:18:06;23.87;;;2.23;;
16159;SDS011;8185;57.818;15.224;2022-09-21T04:20:33;35.83;;;2.57;;
16159;SDS011;8185;57.818;15.224;2022-09-21T04:23:01;15.13;;;2.13;;
16159;SDS011;8185;57.818;15.224;2022-09-21T04:25:28;26.97;;;2.10;;
16159;SDS011;8185;57.818;15.224;2022-09-21T04:27:56;7.50;;;1.33;;
16159;SDS011;8185;57.818;15.224;2022-09-21T04:30:24;6.83;;;1.30;;
16159;SDS011;8185;57.818;15.224;2022-09-21T04:32:51;8.33;;;1.53;;
16159;SDS011;8185;57.818;15.224;2022-09-21T04:35:18;11.43;;;1.73;;
16159;SDS011;8185;57.818;15.224;2022-09-21T04:37:45;10.40;;;1.40;;
16159;SDS011;8185;57.818;15.224;2022-09-21T04:40:13;23.80;;;2.20;;
16159;SDS011;8185;57.818;15.224;2022-09-21T04:42:41;11.17;;;1.90;;
16159;SDS011;8185;57.818;15.224;2022-09-21T04:45:10;15.40;;;2.10;;
16159;SDS011;8185;57.818;15.224;2022-09-21T04:47:37;17.67;;;2.20;;
16159;SDS011;8185;57.818;15.224;2022-09-21T04:50:05;14.23;;;1.80;;
16159;SDS011;8185;57.818;15.224;2022-09-21T04:52:33;10.87;;;1.87;;
16159;SDS011;8185;57.818;15.224;2022-09-21T04:55:00;9.00;;;1.40;;
16159;SDS011;8185;57.818;15.224;2022-09-21T04:57:28;7.97;;;1.53;;
16159;SDS011;8185;57.818;15.224;2022-09-21T04:59:55;9.10;;;2.23;;
16159;SDS011;8185;57.818;15.224;2022-09-21T05:02:24;1.37;;;0.80;;
16159;SDS011;8185;57.818;15.224;2022-09-21T05:04:51;3.43;;;1.03;;
16159;SDS011;8185;57.818;15.224;2022-09-21T05:07:18;1.90;;;0.83;;
16159;SDS011;8185;57.818;15.224;2022-09-21T05:09:46;1.23;;;1.00;;
16159;SDS011;8185;57.818;15.224;2022-09-21T05:12:27;1.23;;;0.90;;
16159;SDS011;8185;57.818;15.224;2022-09-21T05:14:55;0.90;;;0.87;;
16159;SDS011;8185;57.818;15.224;2022-09-21T05:17:24;5.03;;;1.00;;
16159;SDS011;8185;57.818;15.224;2022-09-21T05:19:51;1.63;;;0.97;;
16159;SDS011;8185;57.818;15.224;2022-09-21T05:22:19;2.63;;;1.10;;
16159;SDS011;8185;57.818;15.224;2022-09-21T05:24:46;1.63;;;0.90;;
16159;SDS011;8185;57.818;15.224;2022-09-21T05:27:13;1.10;;;1.00;;
16159;SDS011;8185;57.818;15.224;2022-09-21T05:29:41;0.77;;;0.70;;
16159;SDS011;8185;57.818;15.224;2022-09-21T05:32:11;3.80;;;0.93;;
16159;SDS011;8185;57.818;15.224;2022-09-21T05:34:50;2.20;;;0.80;;
16159;SDS011;8185;57.818;15.224;2022-09-21T05:37:36;2.47;;;1.17;;
16159;SDS011;8185;57.818;15.224;2022-09-21T05:40:16;0.80;;;0.60;;
16159;SDS011;8185;57.818;15.224;2022-09-21T05:42:44;3.97;;;1.00;;
16159;SDS011;8185;57.818;15.224;2022-09-21T05:45:13;0.60;;;0.60;;
16159;SDS011;8185;57.818;15.224;2022-09-21T05:47:47;1.00;;;0.80;;
16159;SDS011;8185;57.818;15.224;2022-09-21T05:50:32;1.17;;;0.77;;
16159;SDS011;8185;57.818;15.224;2022-09-21T05:53:14;5.40;;;0.80;;
16159;SDS011;8185;57.818;15.224;2022-09-21T05:55:54;4.33;;;0.70;;
16159;SDS011;8185;57.818;15.224;2022-09-21T05:58:26;0.60;;;0.60;;
16159;SDS011;8185;57.818;15.224;2022-09-21T06:01:03;0.63;;;0.40;;
16159;SDS011;8185;57.818;15.224;2022-09-21T06:03:44;2.20;;;0.50;;
16159;SDS011;8185;57.818;15.224;2022-09-21T06:06:15;1.13;;;0.50;;
16159;SDS011;8185;57.818;15.224;2022-09-21T06:08:43;0.57;;;0.57;;
16159;SDS011;8185;57.818;15.224;2022-09-21T06:11:10;0.77;;;0.60;;
16159;SDS011;8185;57.818;15.224;2022-09-21T06:13:38;2.43;;;0.60;;
16159;SDS011;8185;57.818;15.224;2022-09-21T06:16:06;0.73;;;0.57;;
16159;SDS011;8185;57.818;15.224;2022-09-21T06:18:35;1.30;;;0.70;;
16159;SDS011;8185;57.818;15.224;2022-09-21T06:21:04;1.13;;;0.60;;
16159;SDS011;8185;57.818;15.224;2022-09-21T06:23:34;0.60;;;0.53;;
16159;SDS011;8185;57.818;15.224;2022-09-21T06:26:02;0.90;;;0.70;;
16159;SDS011;8185;57.818;15.224;2022-09-21T06:28:29;0.87;;;0.67;;
16159;SDS011;8185;57.818;15.224;2022-09-21T06:30:56;4.20;;;0.77;;
16159;SDS011;8185;57.818;15.224;2022-09-21T06:33:24;0.80;;;0.67;;
16159;SDS011;8185;57.818;15.224;2022-09-21T06:35:52;1.90;;;0.77;;
16159;SDS011;8185;57.818;15.224;2022-09-21T06:38:20;0.70;;;0.50;;
16159;SDS011;8185;57.818;15.224;2022-09-21T06:40:50;0.70;;;0.53;;
16159;SDS011;8185;57.818;15.224;2022-09-21T06:43:18;2.13;;;0.70;;
16159;SDS011;8185;57.818;15.224;2022-09-21T06:45:51;0.60;;;0.50;;
16159;SDS011;8185;57.818;15.224;2022-09-21T06:48:19;1.27;;;0.70;;
16159;SDS011;8185;57.818;15.224;2022-09-21T06:50:47;2.00;;;0.70;;
16159;SDS011;8185;57.818;15.224;2022-09-21T06:53:14;1.17;;;0.60;;
16159;SDS011;8185;57.818;15.224;2022-09-21T06:55:42;5.10;;;1.30;;
16159;SDS011;8185;57.818;15.224;2022-09-21T06:58:11;0.60;;;0.60;;
16159;SDS011;8185;57.818;15.224;2022-09-21T07:00:38;1.43;;;0.67;;
16159;SDS011;8185;57.818;15.224;2022-09-21T07:03:08;1.93;;;0.63;;
16159;SDS011;8185;57.818;15.224;2022-09-21T07:05:36;1.27;;;0.60;;
16159;SDS011;8185;57.818;15.224;2022-09-21T07:08:03;0.93;;;0.70;;
16159;SDS011;8185;57.818;15.224;2022-09-21T07:10:31;1.93;;;0.60;;
16159;SDS011;8185;57.818;15.224;2022-09-21T07:13:00;1.70;;;0.40;;
16159;SDS011;8185;57.818;15.224;2022-09-21T07:15:30;3.50;;;0.80;;
16159;SDS011;8185;57.818;15.224;2022-09-21T07:17:58;1.00;;;0.57;;
16159;SDS011;8185;57.818;15.224;2022-09-21T07:20:25;0.63;;;0.50;;
16159;SDS011;8185;57.818;15.224;2022-09-21T07:22:52;0.83;;;0.70;;
16159;SDS011;8185;57.818;15.224;2022-09-21T07:25:19;1.63;;;0.80;;
16159;SDS011;8185;57.818;15.224;2022-09-21T07:27:47;1.17;;;0.73;;
16159;SDS011;8185;57.818;15.224;2022-09-21T07:30:14;1.10;;;0.90;;
16159;SDS011;8185;57.818;15.224;2022-09-21T07:32:43;1.07;;;0.80;;
16159;SDS011;8185;57.818;15.224;2022-09-21T07:35:10;1.63;;;1.00;;
16159;SDS011;8185;57.818;15.224;2022-09-21T07:37:37;1.07;;;0.80;;
16159;SDS011;8185;57.818;15.224;2022-09-21T07:40:05;0.77;;;0.73;;
16159;SDS011;8185;57.818;15.224;2022-09-21T07:42:33;1.50;;;1.23;;
16159;SDS011;8185;57.818;15.224;2022-09-21T07:45:00;1.27;;;1.07;;
16159;SDS011;8185;57.818;15.224;2022-09-21T07:47:28;1.13;;;0.83;;
16159;SDS011;8185;57.818;15.224;2022-09-21T07:49:57;0.97;;;0.73;;
16159;SDS011;8185;57.818;15.224;2022-09-21T07:52:24;0.80;;;0.80;;
16159;SDS011;8185;57.818;15.224;2022-09-21T07:54:51;1.70;;;0.97;;
16159;SDS011;8185;57.818;15.224;2022-09-21T07:57:18;0.90;;;0.90;;
16159;SDS011;8185;57.818;15.224;2022-09-21T08:00:03;0.70;;;0.70;;
16159;SDS011;8185;57.818;15.224;2022-09-21T08:02:33;1.87;;;0.80;;
16159;SDS011;8185;57.818;15.224;2022-09-21T08:05:02;0.70;;;0.60;;
16159;SDS011;8185;57.818;15.224;2022-09-21T08:07:30;1.57;;;0.40;;
16159;SDS011;8185;57.818;15.224;2022-09-21T08:09:57;0.67;;;0.30;;
16159;SDS011;8185;57.818;15.224;2022-09-21T08:12:24;1.97;;;0.40;;
16159;SDS011;8185;57.818;15.224;2022-09-21T08:14:51;1.23;;;0.80;;
16159;SDS011;8185;57.818;15.224;2022-09-21T08:17:18;0.53;;;0.40;;
16159;SDS011;8185;57.818;15.224;2022-09-21T08:19:46;0.50;;;0.37;;
16159;SDS011;8185;57.818;15.224;2022-09-21T08:22:14;1.03;;;0.93;;
16159;SDS011;8185;57.818;15.224;2022-09-21T08:24:43;1.03;;;0.90;;
16159;SDS011;8185;57.818;15.224;2022-09-21T08:27:12;0.40;;;0.40;;
16159;SDS011;8185;57.818;15.224;2022-09-21T08:29:39;1.50;;;0.40;;
16159;SDS011;8185;57.818;15.224;2022-09-21T08:32:07;1.20;;;1.10;;
16159;SDS011;8185;57.818;15.224;2022-09-21T08:34:34;2.13;;;0.37;;
16159;SDS011;8185;57.818;15.224;2022-09-21T08:37:01;4.33;;;0.40;;
16159;SDS011;8185;57.818;15.224;2022-09-21T08:39:30;0.40;;;0.33;;
16159;SDS011;8185;57.818;15.224;2022-09-21T08:42:03;0.60;;;0.40;;
16159;SDS011;8185;57.818;15.224;2022-09-21T08:44:50;0.60;;;0.37;;
16159;SDS011;8185;57.818;15.224;2022-09-21T08:47:27;0.53;;;0.43;;
16159;SDS011;8185;57.818;15.224;2022-09-21T08:50:04;1.03;;;0.50;;
16159;SDS011;8185;57.818;15.224;2022-09-21T08:52:38;0.40;;;0.30;;
16159;SDS011;8185;57.818;15.224;2022-09-21T08:55:08;0.50;;;0.30;;
16159;SDS011;8185;57.818;15.224;2022-09-21T08:57:44;0.50;;;0.30;;
16159;SDS011;8185;57.818;15.224;2022-09-21T09:02:46;0.30;;;0.20;;
16159;SDS011;8185;57.818;15.224;2022-09-21T09:05:38;0.43;;;0.30;;
16159;SDS011;8185;57.818;15.224;2022-09-21T09:08:30;0.70;;;0.33;;
16159;SDS011;8185;57.818;15.224;2022-09-21T09:11:18;2.30;;;0.30;;
16159;SDS011;8185;57.818;15.224;2022-09-21T09:14:00;0.90;;;0.30;;
16159;SDS011;8185;57.818;15.224;2022-09-21T09:16:36;0.33;;;0.20;;
16159;SDS011;8185;57.818;15.224;2022-09-21T09:19:10;0.57;;;0.30;;
16159;SDS011;8185;57.818;15.224;2022-09-21T09:21:46;0.33;;;0.30;;
16159;SDS011;8185;57.818;15.224;2022-09-21T09:24:15;0.97;;;0.37;;
16159;SDS011;8185;57.818;15.224;2022-09-21T09:26:52;1.17;;;0.30;;
16159;SDS011;8185;57.818;15.224;2022-09-21T09:29:23;0.30;;;0.20;;
16159;SDS011;8185;57.818;15.224;2022-09-21T09:31:55;1.23;;;0.33;;
16159;SDS011;8185;57.818;15.224;2022-09-21T09:34:27;0.20;;;0.13;;
16159;SDS011;8185;57.818;15.224;2022-09-21T09:36:58;0.50;;;0.20;;
16159;SDS011;8185;57.818;15.224;2022-09-21T09:39:35;0.23;;;0.20;;
16159;SDS011;8185;57.818;15.224;2022-09-21T09:42:09;1.07;;;0.30;;
16159;SDS011;8185;57.818;15.224;2022-09-21T09:44:59;0.20;;;0.20;;
16159;SDS011;8185;57.818;15.224;2022-09-21T09:47:49;0.20;;;0.20;;
16159;SDS011;8185;57.818;15.224;2022-09-21T09:50:26;0.47;;;0.20;;
16159;SDS011;8185;57.818;15.224;2022-09-21T09:52:56;0.30;;;0.20;;
16159;SDS011;8185;57.818;15.224;2022-09-21T09:55:33;1.03;;;0.20;;
16159;SDS011;8185;57.818;15.224;2022-09-21T09:58:05;0.30;;;0.13;;
16159;SDS011;8185;57.818;15.224;2022-09-21T10:00:40;1.07;;;0.30;;
16159;SDS011;8185;57.818;15.224;2022-09-21T10:03:14;0.40;;;0.30;;
16159;SDS011;8185;57.818;15.224;2022-09-21T10:05:43;0.33;;;0.27;;
16159;SDS011;8185;57.818;15.224;2022-09-21T10:08:28;0.30;;;0.20;;
16159;SDS011;8185;57.818;15.224;2022-09-21T10:11:06;0.30;;;0.20;;
16159;SDS011;8185;57.818;15.224;2022-09-21T10:13:35;0.20;;;0.13;;
16159;SDS011;8185;57.818;15.224;2022-09-21T10:16:04;0.30;;;0.20;;
16159;SDS011;8185;57.818;15.224;2022-09-21T10:18:37;0.30;;;0.20;;
16159;SDS011;8185;57.818;15.224;2022-09-21T10:21:06;0.77;;;0.20;;
16159;SDS011;8185;57.818;15.224;2022-09-21T10:23:43;0.20;;;0.10;;
16159;SDS011;8185;57.818;15.224;2022-09-21T10:26:13;0.20;;;0.10;;
16159;SDS011;8185;57.818;15.224;2022-09-21T10:28:55;0.50;;;0.30;;
16159;SDS011;8185;57.818;15.224;2022-09-21T10:31:24;0.37;;;0.20;;
16159;SDS011;8185;57.818;15.224;2022-09-21T10:34:03;0.63;;;0.30;;
16159;SDS011;8185;57.818;15.224;2022-09-21T10:36:33;0.20;;;0.10;;
16159;SDS011;8185;57.818;15.224;2022-09-21T10:39:18;0.83;;;0.30;;
16159;SDS011;8185;57.818;15.224;2022-09-21T10:41:47;0.20;;;0.10;;
16159;SDS011;8185;57.818;15.224;2022-09-21T10:44:18;0.33;;;0.10;;
16159;SDS011;8185;57.818;15.224;2022-09-21T10:46:48;2.00;;;0.20;;
16159;SDS011;8185;57.818;15.224;2022-09-21T10:49:19;0.67;;;0.10;;
16159;SDS011;8185;57.818;15.224;2022-09-21T10:51:50;0.60;;;0.20;;
16159;SDS011;8185;57.818;15.224;2022-09-21T10:54:24;0.30;;;0.20;;
16159;SDS011;8185;57.818;15.224;2022-09-21T10:56:54;0.40;;;0.15;;
16159;SDS011;8185;57.818;15.224;2022-09-21T10:59:28;0.63;;;0.20;;
16159;SDS011;8185;57.818;15.224;2022-09-21T11:01:57;0.40;;;0.10;;
16159;SDS011;8185;57.818;15.224;2022-09-21T11:04:31;0.33;;;0.20;;
16159;SDS011;8185;57.818;15.224;2022-09-21T11:07:06;1.47;;;0.17;;
16159;SDS011;8185;57.818;15.224;2022-09-21T11:09:40;0.20;;;0.20;;
16159;SDS011;8185;57.818;15.224;2022-09-21T11:12:20;0.30;;;0.10;;
16159;SDS011;8185;57.818;15.224;2022-09-21T11:15:03;0.40;;;0.30;;
16159;SDS011;8185;57.818;15.224;2022-09-21T11:17:43;0.40;;;0.20;;
16159;SDS011;8185;57.818;15.224;2022-09-21T11:20:18;0.90;;;0.27;;
16159;SDS011;8185;57.818;15.224;2022-09-21T11:22:56;0.40;;;0.20;;
16159;SDS011;8185;57.818;15.224;2022-09-21T11:25:34;0.30;;;0.20;;
16159;SDS011;8185;57.818;15.224;2022-09-21T11:28:09;0.83;;;0.40;;
16159;SDS011;8185;57.818;15.224;2022-09-21T11:30:55;0.20;;;0.20;;
16159;SDS011;8185;57.818;15.224;2022-09-21T11:33:43;0.40;;;0.20;;
16159;SDS011;8185;57.818;15.224;2022-09-21T11:36:24;0.30;;;0.17;;
16159;SDS011;8185;57.818;15.224;2022-09-21T11:38:59;0.20;;;0.20;;
16159;SDS011;8185;57.818;15.224;2022-09-21T11:41:39;1.70;;;0.20;;
16159;SDS011;8185;57.818;15.224;2022-09-21T11:44:20;0.20;;;0.20;;
16159;SDS011;8185;57.818;15.224;2022-09-21T11:47:01;0.20;;;0.20;;
16159;SDS011;8185;57.818;15.224;2022-09-21T11:49:44;1.07;;;0.30;;
16159;SDS011;8185;57.818;15.224;2022-09-21T11:52:24;0.20;;;0.20;;
16159;SDS011;8185;57.818;15.224;2022-09-21T11:55:06;0.20;;;0.20;;
16159;SDS011;8185;57.818;15.224;2022-09-21T11:57:47;0.30;;;0.20;;
16159;SDS011;8185;57.818;15.224;2022-09-21T12:00:20;1.27;;;0.20;;
16159;SDS011;8185;57.818;15.224;2022-09-21T12:05:49;0.20;;;0.10;;
16159;SDS011;8185;57.818;15.224;2022-09-21T12:08:41;0.37;;;0.20;;
16159;SDS011;8185;57.818;15.224;2022-09-21T12:11:31;0.63;;;0.20;;
16159;SDS011;8185;57.818;15.224;2022-09-21T12:14:06;0.50;;;0.20;;
16159;SDS011;8185;57.818;15.224;2022-09-21T12:16:42;0.20;;;0.20;;
16159;SDS011;8185;57.818;15.224;2022-09-21T12:19:18;0.33;;;0.20;;
16159;SDS011;8185;57.818;15.224;2022-09-21T12:21:53;0.20;;;0.10;;
16159;SDS011;8185;57.818;15.224;2022-09-21T12:24:26;0.40;;;0.30;;
16159;SDS011;8185;57.818;15.224;2022-09-21T12:26:57;0.27;;;0.20;;
16159;SDS011;8185;57.818;15.224;2022-09-21T12:29:32;1.70;;;0.20;;
16159;SDS011;8185;57.818;15.224;2022-09-21T12:32:04;1.90;;;0.20;;
16159;SDS011;8185;57.818;15.224;2022-09-21T12:34:44;0.30;;;0.20;;
16159;SDS011;8185;57.818;15.224;2022-09-21T12:37:16;0.67;;;0.20;;
16159;SDS011;8185;57.818;15.224;2022-09-21T12:39:50;0.40;;;0.20;;
16159;SDS011;8185;57.818;15.224;2022-09-21T12:42:26;0.37;;;0.20;;
16159;SDS011;8185;57.818;15.224;2022-09-21T12:44:58;0.30;;;0.20;;
16159;SDS011;8185;57.818;15.224;2022-09-21T12:47:43;0.20;;;0.10;;
16159;SDS011;8185;57.818;15.224;2022-09-21T12:50:20;0.50;;;0.20;;
16159;SDS011;8185;57.818;15.224;2022-09-21T12:52:52;0.40;;;0.30;;
16159;SDS011;8185;57.818;15.224;2022-09-21T12:55:26;1.70;;;0.20;;
16159;SDS011;8185;57.818;15.224;2022-09-21T12:58:12;1.70;;;0.13;;
16159;SDS011;8185;57.818;15.224;2022-09-21T13:00:52;0.43;;;0.27;;
16159;SDS011;8185;57.818;15.224;2022-09-21T13:03:28;0.73;;;0.20;;
16159;SDS011;8185;57.818;15.224;2022-09-21T13:09:02;0.53;;;0.30;;
16159;SDS011;8185;57.818;15.224;2022-09-21T13:11:31;1.83;;;0.20;;
16159;SDS011;8185;57.818;15.224;2022-09-21T13:14:00;2.30;;;0.30;;
16159;SDS011;8185;57.818;15.224;2022-09-21T13:16:30;0.73;;;0.33;;
16159;SDS011;8185;57.818;15.224;2022-09-21T13:18:59;0.30;;;0.23;;
16159;SDS011;8185;57.818;15.224;2022-09-21T13:21:29;0.70;;;0.30;;
16159;SDS011;8185;57.818;15.224;2022-09-21T13:23:59;0.50;;;0.20;;
16159;SDS011;8185;57.818;15.224;2022-09-21T13:26:31;1.80;;;0.50;;
16159;SDS011;8185;57.818;15.224;2022-09-21T13:31:53;0.20;;;0.20;;
16159;SDS011;8185;57.818;15.224;2022-09-21T13:34:24;0.97;;;0.20;;
16159;SDS011;8185;57.818;15.224;2022-09-21T13:37:23;0.27;;;0.20;;
16159;SDS011;8185;57.818;15.224;2022-09-21T13:49:24;0.50;;;0.20;;
16159;SDS011;8185;57.818;15.224;2022-09-21T13:52:04;0.50;;;0.20;;
16159;SDS011;8185;57.818;15.224;2022-09-21T13:54:45;0.40;;;0.20;;
16159;SDS011;8185;57.818;15.224;2022-09-21T13:57:18;0.20;;;0.20;;
16159;SDS011;8185;57.818;15.224;2022-09-21T13:59:58;0.20;;;0.20;;
16159;SDS011;8185;57.818;15.224;2022-09-21T14:02:34;0.20;;;0.20;;
16159;SDS011;8185;57.818;15.224;2022-09-21T14:05:06;0.20;;;0.20;;
16159;SDS011;8185;57.818;15.224;2022-09-21T14:07:52;0.43;;;0.20;;
16159;SDS011;8185;57.818;15.224;2022-09-21T14:10:21;0.27;;;0.20;;
16159;SDS011;8185;57.818;15.224;2022-09-21T14:12:50;1.40;;;0.20;;
16159;SDS011;8185;57.818;15.224;2022-09-21T14:15:33;0.90;;;0.30;;
16159;SDS011;8185;57.818;15.224;2022-09-21T14:18:19;0.40;;;0.20;;
16159;SDS011;8185;57.818;15.224;2022-09-21T14:21:15;0.87;;;0.20;;
16159;SDS011;8185;57.818;15.224;2022-09-21T14:26:46;0.35;;;0.10;;
16159;SDS011;8185;57.818;15.224;2022-09-21T14:29:24;0.20;;;0.10;;
16159;SDS011;8185;57.818;15.224;2022-09-21T14:31:55;0.30;;;0.10;;
16159;SDS011;8185;57.818;15.224;2022-09-21T14:34:28;0.30;;;0.10;;
16159;SDS011;8185;57.818;15.224;2022-09-21T14:37:00;0.30;;;0.10;;
16159;SDS011;8185;57.818;15.224;2022-09-21T14:39:31;0.20;;;0.10;;
16159;SDS011;8185;57.818;15.224;2022-09-21T14:42:02;0.28;;;0.10;;
16159;SDS011;8185;57.818;15.224;2022-09-21T14:44:37;0.25;;;0.10;;
16159;SDS011;8185;57.818;15.224;2022-09-21T14:47:09;1.95;;;0.10;;
16159;SDS011;8185;57.818;15.224;2022-09-21T14:49:59;1.40;;;0.10;;
16159;SDS011;8185;57.818;15.224;2022-09-21T14:52:40;0.70;;;0.10;;
16159;SDS011;8185;57.818;15.224;2022-09-21T14:55:18;0.52;;;0.20;;
16159;SDS011;8185;57.818;15.224;2022-09-21T15:00:46;0.65;;;0.20;;
16159;SDS011;8185;57.818;15.224;2022-09-21T15:03:23;0.50;;;0.20;;
16159;SDS011;8185;57.818;15.224;2022-09-21T15:06:07;0.60;;;0.10;;
16159;SDS011;8185;57.818;15.224;2022-09-21T15:09:04;0.30;;;0.10;;
16159;SDS011;8185;57.818;15.224;2022-09-21T15:12:09;0.32;;;0.10;;
16159;SDS011;8185;57.818;15.224;2022-09-21T15:14:42;0.50;;;0.20;;
16159;SDS011;8185;57.818;15.224;2022-09-21T15:17:18;0.20;;;0.10;;
16159;SDS011;8185;57.818;15.224;2022-09-21T15:19:49;0.98;;;0.32;;
16159;SDS011;8185;57.818;15.224;2022-09-21T15:22:18;0.20;;;0.10;;
16159;SDS011;8185;57.818;15.224;2022-09-21T15:24:48;0.63;;;0.30;;
16159;SDS011;8185;57.818;15.224;2022-09-21T15:27:16;1.95;;;0.10;;
16159;SDS011;8185;57.818;15.224;2022-09-21T15:29:46;0.73;;;0.10;;
16159;SDS011;8185;57.818;15.224;2022-09-21T15:32:22;1.65;;;0.20;;
16159;SDS011;8185;57.818;15.224;2022-09-21T15:34:59;0.30;;;0.20;;
16159;SDS011;8185;57.818;15.224;2022-09-21T15:37:28;2.15;;;0.10;;
16159;SDS011;8185;57.818;15.224;2022-09-21T15:40:02;0.30;;;0.10;;
16159;SDS011;8185;57.818;15.224;2022-09-21T15:42:31;0.90;;;0.10;;
16159;SDS011;8185;57.818;15.224;2022-09-21T15:45:13;0.52;;;0.10;;
16159;SDS011;8185;57.818;15.224;2022-09-21T15:47:42;0.93;;;0.15;;
16159;SDS011;8185;57.818;15.224;2022-09-21T15:50:11;1.75;;;0.20;;